Nearby METAR Reports

 

KRYN - Tucson/Ryan Fld, Arizona, USA
Distance from station: SSW 16mi, 26km
Updated: Fri, 05-Jun-2020 6:45am MST
Clear
Clear
 Wind from E
Wind: E 8 mph , 13 km/h
Temperature: 79°F , 26°C
Dew Point: 43°F , 6°C
Humidity: 28%
Barometer: 29.83 inHg , 1010.2 hPa
Clouds: Clear
Visibility: 10 miles , 16 km
2020/06/05 13:45 KRYN 051345Z 10007KT 10SM CLR 26/06 A2983
KTUS - Tucson, Arizona, USA
Distance from station: SSE 18mi, 28km
Updated: Fri, 05-Jun-2020 5:53am MST
Clear
Clear
 Wind from SE
Wind: SE 6 mph , 9 km/h
Temperature: 75°F , 24°C
Dew Point: 39°F , 4°C
Humidity: 27%
Barometer: 29.84 inHg , 1010.5 hPa
Clouds: Clear
Visibility: 10 miles , 16 km
2020/06/05 12:53 KTUS 051253Z 14005KT 10SM CLR 24/04 A2984 RMK AO2 SLP047 T02440044
 
KDMA - Davis/Tucson, Arizona, USA
Distance from station: SE 18mi, 29km
Updated: Fri, 05-Jun-2020 5:58am MST
Clear
Clear
 Wind from ESE
Wind: ESE 6 mph , 9 km/h
Temperature: 75°F , 24°C
Dew Point: 41°F , 5°C
Humidity: 29%
Barometer: 29.82 inHg , 1009.8 hPa
Clouds: Clear
Visibility: 10 miles , 16 km
2020/06/05 12:58 KDMA 051258Z AUTO 12005KT 10SM CLR 24/05 A2982 RMK AO2 SLP047 T02410049 FZRANO $
KCGZ - Casa Granda, Arizona, USA
Distance from station: NW 57mi, 92km
Updated: Fri, 05-Jun-2020 5:56am MST
Clear
Clear
 Wind from calm
Wind: Calm
Temperature: 79°F , 26°C
Dew Point: 39°F , 4°C
Humidity: 24%
Barometer: 29.74 inHg , 1007.1 hPa
Clouds: Clear
Visibility: 10 miles , 16 km
2020/06/05 12:56 KCGZ 051256Z AUTO 00000KT 10SM CLR 26/04 A2974 RMK AO2 SLP051 T02610039
 
KALK - Pioneer Airfield, Arizona, USA
Distance from station: SE 65mi, 104km
Updated: Fri, 05-Jun-2020 5:56am MST
Clear
Clear
 Wind from calm
Wind: Calm
Temperature: 72°F , 22°C
Dew Point: 37°F , 3°C
Humidity: 29%
Barometer: 30.01 inHg , 1016.3 hPa
Clouds: Clear
Visibility: 10 miles , 16 km
2020/06/05 12:56 KALK 051256Z AUTO 00000KT 10SM CLR 22/03 A3001 RMK AO2 SLP055 T02220028
KOLS - Nogales, Arizona, USA
Distance from station: S 67mi, 108km
Updated: Fri, 05-Jun-2020 5:54am MST
Clear
Clear
 Wind from calm
Wind: Calm
Temperature: 64°F , 18°C
Dew Point: 46°F , 8°C
Humidity: 52%
Barometer: 29.93 inHg , 1013.5 hPa
Clouds: Clear
Visibility: 10 miles , 16 km
2020/06/05 12:54 KOLS 051254Z AUTO 00000KT 10SM CLR 18/08 A2993 RMK AO2 SLP059 T01830078
 
KFHU - Fort Huachuca, Arizona, USA
Distance from station: SE 69mi, 110km
Updated: Fri, 05-Jun-2020 6:40am MST
Clear
Clear
 Wind from calm
Wind: Calm
Temperature: 75°F , 24°C
Dew Point: 41°F , 5°C
Humidity: 29%
Barometer: 30.01 inHg , 1016.3 hPa
Clouds: Clear
Visibility: 9 miles , 14 km
2020/06/05 13:40 KFHU 051340Z AUTO 00000KT 9SM CLR 24/05 A3001 RMK AO2 SLP076
KIWA - Chandler/Mesa, Arizona, USA
Distance from station: NNW 73mi, 117km
Updated: Fri, 05-Jun-2020 5:50am MST
Mostly cloudy
Mostly cloudy
 Wind from E
Wind: E 7 mph , 11 km/h
Temperature: 79°F , 26°C
Dew Point: 41°F , 5°C
Humidity: 26%
Barometer: 29.74 inHg , 1007.1 hPa
Clouds: Mostly cloudy
Visibility: 10 miles , 16 km
Cloud details: Mostly cloudy 25000 ft
2020/06/05 12:50 KIWA 051250Z 10006KT 10SM BKN250 26/05 A2974